sensor_id;sensor_type;location;lat;lon;timestamp;temperature;humidity
8188;DHT22;4135;49.184;9.722;2023-03-01T00:01:59;22.70;41.00
8188;DHT22;4135;49.184;9.722;2023-03-01T00:04:29;22.70;40.40
8188;DHT22;4135;49.184;9.722;2023-03-01T00:06:58;22.70;40.40
8188;DHT22;4135;49.184;9.722;2023-03-01T00:09:28;22.60;40.30
8188;DHT22;4135;49.184;9.722;2023-03-01T00:11:57;22.60;40.30
8188;DHT22;4135;49.184;9.722;2023-03-01T00:14:27;22.60;40.40
8188;DHT22;4135;49.184;9.722;2023-03-01T00:16:56;22.60;40.40
8188;DHT22;4135;49.184;9.722;2023-03-01T00:19:26;22.60;40.40
8188;DHT22;4135;49.184;9.722;2023-03-01T00:21:55;22.60;40.40
8188;DHT22;4135;49.184;9.722;2023-03-01T00:24:25;22.60;40.40
8188;DHT22;4135;49.184;9.722;2023-03-01T00:26:55;22.60;40.40
8188;DHT22;4135;49.184;9.722;2023-03-01T00:29:25;22.60;40.40
8188;DHT22;4135;49.184;9.722;2023-03-01T00:31:54;22.50;40.40
8188;DHT22;4135;49.184;9.722;2023-03-01T00:34:24;22.50;40.40
8188;DHT22;4135;49.184;9.722;2023-03-01T00:36:53;22.50;40.40
8188;DHT22;4135;49.184;9.722;2023-03-01T00:39:23;22.50;40.40
8188;DHT22;4135;49.184;9.722;2023-03-01T00:41:52;22.50;40.40
8188;DHT22;4135;49.184;9.722;2023-03-01T00:44:22;22.50;40.40
8188;DHT22;4135;49.184;9.722;2023-03-01T00:46:51;22.50;40.40
8188;DHT22;4135;49.184;9.722;2023-03-01T00:49:21;22.40;40.30
8188;DHT22;4135;49.184;9.722;2023-03-01T00:51:50;22.40;40.30
8188;DHT22;4135;49.184;9.722;2023-03-01T00:54:20;22.40;40.30
8188;DHT22;4135;49.184;9.722;2023-03-01T00:56:49;22.40;40.30
8188;DHT22;4135;49.184;9.722;2023-03-01T00:59:19;22.40;40.30
8188;DHT22;4135;49.184;9.722;2023-03-01T01:01:48;22.40;40.30
8188;DHT22;4135;49.184;9.722;2023-03-01T01:04:18;22.40;40.40
8188;DHT22;4135;49.184;9.722;2023-03-01T01:06:48;22.40;40.30
8188;DHT22;4135;49.184;9.722;2023-03-01T01:09:17;22.40;40.30
8188;DHT22;4135;49.184;9.722;2023-03-01T01:11:49;22.30;40.30
8188;DHT22;4135;49.184;9.722;2023-03-01T01:14:19;22.30;40.30
8188;DHT22;4135;49.184;9.722;2023-03-01T01:16:49;22.30;40.30
8188;DHT22;4135;49.184;9.722;2023-03-01T01:19:19;22.30;40.30
8188;DHT22;4135;49.184;9.722;2023-03-01T01:21:48;22.30;40.30
8188;DHT22;4135;49.184;9.722;2023-03-01T01:24:18;22.30;40.30
8188;DHT22;4135;49.184;9.722;2023-03-01T01:26:49;22.30;40.70
8188;DHT22;4135;49.184;9.722;2023-03-01T01:29:18;22.30;40.40
8188;DHT22;4135;49.184;9.722;2023-03-01T01:31:48;22.20;40.30
8188;DHT22;4135;49.184;9.722;2023-03-01T01:34:20;22.20;40.30
8188;DHT22;4135;49.184;9.722;2023-03-01T01:36:52;22.20;40.30
8188;DHT22;4135;49.184;9.722;2023-03-01T01:39:23;22.20;40.30
8188;DHT22;4135;49.184;9.722;2023-03-01T01:41:53;22.20;40.30
8188;DHT22;4135;49.184;9.722;2023-03-01T01:44:27;22.20;40.30
8188;DHT22;4135;49.184;9.722;2023-03-01T01:47:18;22.20;40.30
8188;DHT22;4135;49.184;9.722;2023-03-01T01:49:52;22.10;40.30
8188;DHT22;4135;49.184;9.722;2023-03-01T01:52:29;22.10;40.30
8188;DHT22;4135;49.184;9.722;2023-03-01T01:55:04;22.10;40.30
8188;DHT22;4135;49.184;9.722;2023-03-01T01:57:41;22.10;40.30
8188;DHT22;4135;49.184;9.722;2023-03-01T02:00:15;22.10;40.30
8188;DHT22;4135;49.184;9.722;2023-03-01T02:02:48;22.10;40.30
8188;DHT22;4135;49.184;9.722;2023-03-01T02:07:58;22.10;40.30
8188;DHT22;4135;49.184;9.722;2023-03-01T02:10:29;22.10;40.30
8188;DHT22;4135;49.184;9.722;2023-03-01T02:13:01;22.10;40.30
8188;DHT22;4135;49.184;9.722;2023-03-01T02:15:34;22.00;40.30
8188;DHT22;4135;49.184;9.722;2023-03-01T02:18:05;22.00;40.30
8188;DHT22;4135;49.184;9.722;2023-03-01T02:20:40;22.00;40.30
8188;DHT22;4135;49.184;9.722;2023-03-01T02:23:12;22.00;40.30
8188;DHT22;4135;49.184;9.722;2023-03-01T02:26:03;22.00;40.30
8188;DHT22;4135;49.184;9.722;2023-03-01T02:28:38;22.00;40.40
8188;DHT22;4135;49.184;9.722;2023-03-01T02:31:10;22.00;40.40
8188;DHT22;4135;49.184;9.722;2023-03-01T02:34:02;22.00;40.40
8188;DHT22;4135;49.184;9.722;2023-03-01T02:36:40;22.00;40.40
8188;DHT22;4135;49.184;9.722;2023-03-01T02:39:18;22.00;40.40
8188;DHT22;4135;49.184;9.722;2023-03-01T02:41:52;21.90;40.30
8188;DHT22;4135;49.184;9.722;2023-03-01T02:44:23;21.90;40.30
8188;DHT22;4135;49.184;9.722;2023-03-01T02:46:56;21.90;40.30
8188;DHT22;4135;49.184;9.722;2023-03-01T02:49:28;21.90;40.40
8188;DHT22;4135;49.184;9.722;2023-03-01T02:52:26;21.90;40.40
8188;DHT22;4135;49.184;9.722;2023-03-01T02:55:08;21.90;40.40
8188;DHT22;4135;49.184;9.722;2023-03-01T02:57:40;21.90;40.50
8188;DHT22;4135;49.184;9.722;2023-03-01T03:00:17;21.90;40.50
8188;DHT22;4135;49.184;9.722;2023-03-01T03:02:52;21.90;40.40
8188;DHT22;4135;49.184;9.722;2023-03-01T03:05:27;21.90;40.50
8188;DHT22;4135;49.184;9.722;2023-03-01T03:07:59;21.90;40.50
8188;DHT22;4135;49.184;9.722;2023-03-01T03:10:32;21.90;40.50
8188;DHT22;4135;49.184;9.722;2023-03-01T03:13:08;21.80;40.50
8188;DHT22;4135;49.184;9.722;2023-03-01T03:15:38;21.80;40.50
8188;DHT22;4135;49.184;9.722;2023-03-01T03:18:11;21.80;40.50
8188;DHT22;4135;49.184;9.722;2023-03-01T03:20:42;21.80;40.50
8188;DHT22;4135;49.184;9.722;2023-03-01T03:23:13;21.80;40.50
8188;DHT22;4135;49.184;9.722;2023-03-01T03:25:42;21.80;40.50
8188;DHT22;4135;49.184;9.722;2023-03-01T03:28:12;21.80;41.10
8188;DHT22;4135;49.184;9.722;2023-03-01T03:30:42;21.80;40.50
8188;DHT22;4135;49.184;9.722;2023-03-01T03:33:12;21.80;40.60
8188;DHT22;4135;49.184;9.722;2023-03-01T03:35:46;21.80;40.60
8188;DHT22;4135;49.184;9.722;2023-03-01T03:38:19;21.80;40.60
8188;DHT22;4135;49.184;9.722;2023-03-01T03:41:05;21.80;40.60
8188;DHT22;4135;49.184;9.722;2023-03-01T03:43:37;21.80;40.60
8188;DHT22;4135;49.184;9.722;2023-03-01T03:46:07;21.70;40.50
8188;DHT22;4135;49.184;9.722;2023-03-01T03:48:42;21.70;40.50
8188;DHT22;4135;49.184;9.722;2023-03-01T03:51:14;21.70;40.50
8188;DHT22;4135;49.184;9.722;2023-03-01T03:53:45;21.70;40.50
8188;DHT22;4135;49.184;9.722;2023-03-01T03:56:14;21.70;40.50
8188;DHT22;4135;49.184;9.722;2023-03-01T03:58:44;21.70;40.50
8188;DHT22;4135;49.184;9.722;2023-03-01T04:01:13;21.70;40.50
8188;DHT22;4135;49.184;9.722;2023-03-01T04:03:43;21.70;40.60
8188;DHT22;4135;49.184;9.722;2023-03-01T04:06:15;21.70;40.60
8188;DHT22;4135;49.184;9.722;2023-03-01T04:08:45;21.70;40.60
8188;DHT22;4135;49.184;9.722;2023-03-01T04:11:14;21.70;40.60
8188;DHT22;4135;49.184;9.722;2023-03-01T04:13:57;21.70;40.60
8188;DHT22;4135;49.184;9.722;2023-03-01T04:16:27;21.70;40.60
8188;DHT22;4135;49.184;9.722;2023-03-01T04:18:57;21.70;40.60
8188;DHT22;4135;49.184;9.722;2023-03-01T04:21:28;21.70;40.60
8188;DHT22;4135;49.184;9.722;2023-03-01T04:23:58;21.70;40.60
8188;DHT22;4135;49.184;9.722;2023-03-01T04:26:27;21.70;40.60
8188;DHT22;4135;49.184;9.722;2023-03-01T04:28:57;21.70;40.60
8188;DHT22;4135;49.184;9.722;2023-03-01T04:31:27;21.60;40.60
8188;DHT22;4135;49.184;9.722;2023-03-01T04:33:57;21.60;40.60
8188;DHT22;4135;49.184;9.722;2023-03-01T04:36:28;21.60;40.60
8188;DHT22;4135;49.184;9.722;2023-03-01T04:38:57;21.60;40.60
8188;DHT22;4135;49.184;9.722;2023-03-01T04:41:27;21.60;40.60
8188;DHT22;4135;49.184;9.722;2023-03-01T04:43:57;21.60;40.60
8188;DHT22;4135;49.184;9.722;2023-03-01T04:46:29;21.60;40.60
8188;DHT22;4135;49.184;9.722;2023-03-01T04:48:58;21.60;40.60
8188;DHT22;4135;49.184;9.722;2023-03-01T04:51:28;21.60;40.60
8188;DHT22;4135;49.184;9.722;2023-03-01T04:53:58;21.60;40.70
8188;DHT22;4135;49.184;9.722;2023-03-01T04:56:27;21.60;40.60
8188;DHT22;4135;49.184;9.722;2023-03-01T04:58:57;21.60;40.60
8188;DHT22;4135;49.184;9.722;2023-03-01T05:01:26;21.60;40.60
8188;DHT22;4135;49.184;9.722;2023-03-01T05:03:56;21.60;40.60
8188;DHT22;4135;49.184;9.722;2023-03-01T05:06:25;21.50;40.50
8188;DHT22;4135;49.184;9.722;2023-03-01T05:08:55;21.60;40.70
8188;DHT22;4135;49.184;9.722;2023-03-01T05:11:24;21.50;40.60
8188;DHT22;4135;49.184;9.722;2023-03-01T05:13:54;21.60;40.70
8188;DHT22;4135;49.184;9.722;2023-03-01T05:16:24;21.50;40.60
8188;DHT22;4135;49.184;9.722;2023-03-01T05:18:53;21.50;40.60
8188;DHT22;4135;49.184;9.722;2023-03-01T05:21:26;21.50;40.60
8188;DHT22;4135;49.184;9.722;2023-03-01T05:23:55;21.50;40.60
8188;DHT22;4135;49.184;9.722;2023-03-01T05:26:25;21.60;40.70
8188;DHT22;4135;49.184;9.722;2023-03-01T05:28:57;21.60;40.70
8188;DHT22;4135;49.184;9.722;2023-03-01T05:31:27;21.60;40.70
8188;DHT22;4135;49.184;9.722;2023-03-01T05:33:57;21.60;40.70
8188;DHT22;4135;49.184;9.722;2023-03-01T05:36:27;21.60;40.70
8188;DHT22;4135;49.184;9.722;2023-03-01T05:38:56;21.50;40.70
8188;DHT22;4135;49.184;9.722;2023-03-01T05:41:26;21.50;40.70
8188;DHT22;4135;49.184;9.722;2023-03-01T05:43:55;21.50;40.80
8188;DHT22;4135;49.184;9.722;2023-03-01T05:46:25;21.50;40.80
8188;DHT22;4135;49.184;9.722;2023-03-01T05:48:54;21.50;40.80
8188;DHT22;4135;49.184;9.722;2023-03-01T05:51:24;21.40;40.60
8188;DHT22;4135;49.184;9.722;2023-03-01T05:53:53;21.50;40.70
8188;DHT22;4135;49.184;9.722;2023-03-01T05:56:23;21.50;40.60
8188;DHT22;4135;49.184;9.722;2023-03-01T05:58:53;21.50;40.50
8188;DHT22;4135;49.184;9.722;2023-03-01T06:01:22;21.50;40.50
8188;DHT22;4135;49.184;9.722;2023-03-01T06:03:52;21.50;40.50
8188;DHT22;4135;49.184;9.722;2023-03-01T06:06:22;21.50;40.60
8188;DHT22;4135;49.184;9.722;2023-03-01T06:08:52;21.40;40.60
8188;DHT22;4135;49.184;9.722;2023-03-01T06:11:22;21.40;40.60
8188;DHT22;4135;49.184;9.722;2023-03-01T06:13:51;21.40;40.60
8188;DHT22;4135;49.184;9.722;2023-03-01T06:16:21;21.40;40.60
8188;DHT22;4135;49.184;9.722;2023-03-01T06:18:50;21.40;40.70
8188;DHT22;4135;49.184;9.722;2023-03-01T06:21:20;21.40;40.80
8188;DHT22;4135;49.184;9.722;2023-03-01T06:23:49;21.30;40.70
8188;DHT22;4135;49.184;9.722;2023-03-01T06:26:19;21.40;40.80
8188;DHT22;4135;49.184;9.722;2023-03-01T06:28:48;21.30;40.70
8188;DHT22;4135;49.184;9.722;2023-03-01T06:31:18;21.40;41.00
8188;DHT22;4135;49.184;9.722;2023-03-01T06:33:47;21.40;41.60
8188;DHT22;4135;49.184;9.722;2023-03-01T06:36:17;21.50;41.00
8188;DHT22;4135;49.184;9.722;2023-03-01T06:38:47;21.50;40.90
8188;DHT22;4135;49.184;9.722;2023-03-01T06:41:17;21.50;41.00
8188;DHT22;4135;49.184;9.722;2023-03-01T06:43:47;21.40;41.00
8188;DHT22;4135;49.184;9.722;2023-03-01T06:46:16;21.40;41.10
8188;DHT22;4135;49.184;9.722;2023-03-01T06:48:46;21.40;41.10
8188;DHT22;4135;49.184;9.722;2023-03-01T06:51:15;21.40;41.10
8188;DHT22;4135;49.184;9.722;2023-03-01T06:53:46;21.50;41.20
8188;DHT22;4135;49.184;9.722;2023-03-01T06:56:15;21.50;41.20
8188;DHT22;4135;49.184;9.722;2023-03-01T06:58:45;21.50;41.20
8188;DHT22;4135;49.184;9.722;2023-03-01T07:01:14;21.50;41.20
8188;DHT22;4135;49.184;9.722;2023-03-01T07:03:44;21.50;41.20
8188;DHT22;4135;49.184;9.722;2023-03-01T07:06:13;21.50;41.20
8188;DHT22;4135;49.184;9.722;2023-03-01T07:08:43;21.50;41.10
8188;DHT22;4135;49.184;9.722;2023-03-01T07:11:13;21.50;41.20
8188;DHT22;4135;49.184;9.722;2023-03-01T07:13:43;21.50;41.20
8188;DHT22;4135;49.184;9.722;2023-03-01T07:16:12;21.50;41.10
8188;DHT22;4135;49.184;9.722;2023-03-01T07:18:43;21.50;41.20
8188;DHT22;4135;49.184;9.722;2023-03-01T07:21:14;21.60;41.20
8188;DHT22;4135;49.184;9.722;2023-03-01T07:23:43;21.60;41.20
8188;DHT22;4135;49.184;9.722;2023-03-01T07:26:13;21.60;41.20
8188;DHT22;4135;49.184;9.722;2023-03-01T07:28:42;21.60;41.10
8188;DHT22;4135;49.184;9.722;2023-03-01T07:31:12;21.60;41.10
8188;DHT22;4135;49.184;9.722;2023-03-01T07:33:41;21.70;41.20
8188;DHT22;4135;49.184;9.722;2023-03-01T07:36:11;21.70;41.30
8188;DHT22;4135;49.184;9.722;2023-03-01T07:38:40;21.70;41.30
8188;DHT22;4135;49.184;9.722;2023-03-01T07:41:10;21.70;41.20
8188;DHT22;4135;49.184;9.722;2023-03-01T07:43:39;21.80;41.30
8188;DHT22;4135;49.184;9.722;2023-03-01T07:46:09;21.80;41.30
8188;DHT22;4135;49.184;9.722;2023-03-01T07:48:39;21.80;41.40
8188;DHT22;4135;49.184;9.722;2023-03-01T07:51:10;21.80;41.40
8188;DHT22;4135;49.184;9.722;2023-03-01T07:53:39;21.80;41.50
8188;DHT22;4135;49.184;9.722;2023-03-01T07:56:11;21.80;41.50
8188;DHT22;4135;49.184;9.722;2023-03-01T07:58:42;21.90;41.60
8188;DHT22;4135;49.184;9.722;2023-03-01T08:01:14;21.90;41.70
8188;DHT22;4135;49.184;9.722;2023-03-01T08:03:44;21.90;41.70
8188;DHT22;4135;49.184;9.722;2023-03-01T08:06:16;21.90;41.60
8188;DHT22;4135;49.184;9.722;2023-03-01T08:08:46;21.90;41.70
8188;DHT22;4135;49.184;9.722;2023-03-01T08:11:15;22.00;41.80
8188;DHT22;4135;49.184;9.722;2023-03-01T08:13:47;22.00;41.80
8188;DHT22;4135;49.184;9.722;2023-03-01T08:16:17;22.00;41.80
8188;DHT22;4135;49.184;9.722;2023-03-01T08:18:46;22.00;41.80
8188;DHT22;4135;49.184;9.722;2023-03-01T08:21:17;22.00;41.80
8188;DHT22;4135;49.184;9.722;2023-03-01T08:23:46;22.00;41.80
8188;DHT22;4135;49.184;9.722;2023-03-01T08:26:18;22.00;41.80
8188;DHT22;4135;49.184;9.722;2023-03-01T08:28:49;22.00;41.90
8188;DHT22;4135;49.184;9.722;2023-03-01T08:31:24;22.00;42.00
8188;DHT22;4135;49.184;9.722;2023-03-01T08:33:56;22.00;41.90
8188;DHT22;4135;49.184;9.722;2023-03-01T08:36:28;22.00;41.90
8188;DHT22;4135;49.184;9.722;2023-03-01T08:38:58;22.00;41.90
8188;DHT22;4135;49.184;9.722;2023-03-01T08:41:28;22.00;41.90
8188;DHT22;4135;49.184;9.722;2023-03-01T08:43:58;21.80;40.80
8188;DHT22;4135;49.184;9.722;2023-03-01T08:46:30;21.70;39.80
8188;DHT22;4135;49.184;9.722;2023-03-01T08:49:00;21.70;40.70
8188;DHT22;4135;49.184;9.722;2023-03-01T08:51:29;21.70;40.60
8188;DHT22;4135;49.184;9.722;2023-03-01T08:54:01;21.80;40.60
8188;DHT22;4135;49.184;9.722;2023-03-01T08:56:30;21.90;40.30
8188;DHT22;4135;49.184;9.722;2023-03-01T08:59:00;21.90;40.10
8188;DHT22;4135;49.184;9.722;2023-03-01T09:01:29;22.00;40.00
8188;DHT22;4135;49.184;9.722;2023-03-01T09:03:59;22.00;39.90
8188;DHT22;4135;49.184;9.722;2023-03-01T09:06:32;22.10;39.80
8188;DHT22;4135;49.184;9.722;2023-03-01T09:09:04;22.10;39.70
8188;DHT22;4135;49.184;9.722;2023-03-01T09:11:33;22.20;39.60
8188;DHT22;4135;49.184;9.722;2023-03-01T09:14:05;22.20;39.60
8188;DHT22;4135;49.184;9.722;2023-03-01T09:16:34;22.20;39.50
8188;DHT22;4135;49.184;9.722;2023-03-01T09:19:05;22.30;39.60
8188;DHT22;4135;49.184;9.722;2023-03-01T09:21:35;22.50;39.60
8188;DHT22;4135;49.184;9.722;2023-03-01T09:24:05;22.60;39.50
8188;DHT22;4135;49.184;9.722;2023-03-01T09:26:34;22.70;39.40
8188;DHT22;4135;49.184;9.722;2023-03-01T09:29:04;22.80;39.30
8188;DHT22;4135;49.184;9.722;2023-03-01T09:31:33;22.90;39.30
8188;DHT22;4135;49.184;9.722;2023-03-01T09:34:03;22.90;39.20
8188;DHT22;4135;49.184;9.722;2023-03-01T09:36:33;23.00;39.10
8188;DHT22;4135;49.184;9.722;2023-03-01T09:39:02;23.00;39.10
8188;DHT22;4135;49.184;9.722;2023-03-01T09:41:45;23.10;39.10
8188;DHT22;4135;49.184;9.722;2023-03-01T09:44:36;23.10;39.00
8188;DHT22;4135;49.184;9.722;2023-03-01T09:47:21;23.10;39.10
8188;DHT22;4135;49.184;9.722;2023-03-01T09:58:28;23.30;39.00
8188;DHT22;4135;49.184;9.722;2023-03-01T10:00:56;23.30;38.80
8188;DHT22;4135;49.184;9.722;2023-03-01T10:03:39;23.40;38.90
8188;DHT22;4135;49.184;9.722;2023-03-01T10:06:19;23.40;39.00
8188;DHT22;4135;49.184;9.722;2023-03-01T10:09:04;23.40;38.80
8188;DHT22;4135;49.184;9.722;2023-03-01T10:11:41;23.50;38.70
8188;DHT22;4135;49.184;9.722;2023-03-01T10:19:40;23.50;37.70
8188;DHT22;4135;49.184;9.722;2023-03-01T10:22:22;23.50;37.50
8188;DHT22;4135;49.184;9.722;2023-03-01T10:24:56;23.40;37.50
8188;DHT22;4135;49.184;9.722;2023-03-01T10:27:34;23.50;37.10
8188;DHT22;4135;49.184;9.722;2023-03-01T10:30:35;23.40;36.30
8188;DHT22;4135;49.184;9.722;2023-03-01T10:33:23;23.40;36.30
8188;DHT22;4135;49.184;9.722;2023-03-01T10:35:54;23.40;36.30
8188;DHT22;4135;49.184;9.722;2023-03-01T10:38:24;23.40;36.40
8188;DHT22;4135;49.184;9.722;2023-03-01T10:41:05;23.50;36.40
8188;DHT22;4135;49.184;9.722;2023-03-01T10:43:47;23.50;36.30
8188;DHT22;4135;49.184;9.722;2023-03-01T10:49:20;23.40;36.10
8188;DHT22;4135;49.184;9.722;2023-03-01T10:51:51;23.20;35.20
8188;DHT22;4135;49.184;9.722;2023-03-01T10:54:32;23.20;35.10
8188;DHT22;4135;49.184;9.722;2023-03-01T10:57:04;23.20;34.40
8188;DHT22;4135;49.184;9.722;2023-03-01T10:59:36;23.20;34.30
8188;DHT22;4135;49.184;9.722;2023-03-01T11:04:38;23.10;34.00
8188;DHT22;4135;49.184;9.722;2023-03-01T11:07:08;23.10;34.10
8188;DHT22;4135;49.184;9.722;2023-03-01T11:09:38;23.10;33.60
8188;DHT22;4135;49.184;9.722;2023-03-01T11:12:14;23.00;33.60
8188;DHT22;4135;49.184;9.722;2023-03-01T11:14:53;23.00;33.60
8188;DHT22;4135;49.184;9.722;2023-03-01T11:17:31;22.90;33.50
8188;DHT22;4135;49.184;9.722;2023-03-01T11:20:06;23.00;33.70
8188;DHT22;4135;49.184;9.722;2023-03-01T11:22:49;23.00;33.60
8188;DHT22;4135;49.184;9.722;2023-03-01T11:25:25;23.00;33.70
8188;DHT22;4135;49.184;9.722;2023-03-01T11:27:55;23.10;33.80
8188;DHT22;4135;49.184;9.722;2023-03-01T11:30:37;23.20;33.90
8188;DHT22;4135;49.184;9.722;2023-03-01T11:35:53;23.50;34.10
8188;DHT22;4135;49.184;9.722;2023-03-01T11:38:26;23.60;34.20
8188;DHT22;4135;49.184;9.722;2023-03-01T11:41:05;23.80;34.40
8188;DHT22;4135;49.184;9.722;2023-03-01T11:43:58;24.00;34.70
8188;DHT22;4135;49.184;9.722;2023-03-01T11:52:01;24.30;35.10
8188;DHT22;4135;49.184;9.722;2023-03-01T12:12:25;24.70;36.60
8188;DHT22;4135;49.184;9.722;2023-03-01T12:15:15;24.80;37.60
8188;DHT22;4135;49.184;9.722;2023-03-01T12:26:45;24.70;37.70
8188;DHT22;4135;49.184;9.722;2023-03-01T12:29:22;24.70;37.80
8188;DHT22;4135;49.184;9.722;2023-03-01T12:32:20;24.70;37.80
8188;DHT22;4135;49.184;9.722;2023-03-01T12:35:26;24.80;38.00
8188;DHT22;4135;49.184;9.722;2023-03-01T12:38:13;24.90;38.10
8188;DHT22;4135;49.184;9.722;2023-03-01T12:44:10;25.00;38.10
8188;DHT22;4135;49.184;9.722;2023-03-01T12:49:39;25.00;38.20
8188;DHT22;4135;49.184;9.722;2023-03-01T12:55:00;25.00;38.40
8188;DHT22;4135;49.184;9.722;2023-03-01T12:57:54;25.00;38.40
8188;DHT22;4135;49.184;9.722;2023-03-01T13:07:03;24.80;37.90
8188;DHT22;4135;49.184;9.722;2023-03-01T13:09:39;24.80;38.00
8188;DHT22;4135;49.184;9.722;2023-03-01T13:17:53;24.90;38.00
8188;DHT22;4135;49.184;9.722;2023-03-01T13:20:31;24.90;38.00
8188;DHT22;4135;49.184;9.722;2023-03-01T13:23:09;24.90;38.00
8188;DHT22;4135;49.184;9.722;2023-03-01T13:31:06;25.00;37.90
8188;DHT22;4135;49.184;9.722;2023-03-01T13:33:54;25.10;38.00
8188;DHT22;4135;49.184;9.722;2023-03-01T13:38:58;25.10;38.00
8188;DHT22;4135;49.184;9.722;2023-03-01T13:44:25;25.10;38.00
8188;DHT22;4135;49.184;9.722;2023-03-01T13:47:15;25.10;38.00
8188;DHT22;4135;49.184;9.722;2023-03-01T13:50:03;25.10;38.00
8188;DHT22;4135;49.184;9.722;2023-03-01T13:52:40;25.10;38.10
8188;DHT22;4135;49.184;9.722;2023-03-01T13:57:47;25.10;38.10
8188;DHT22;4135;49.184;9.722;2023-03-01T14:00:37;25.00;38.10
8188;DHT22;4135;49.184;9.722;2023-03-01T14:03:13;25.00;38.20
8188;DHT22;4135;49.184;9.722;2023-03-01T14:05:58;25.00;38.20
8188;DHT22;4135;49.184;9.722;2023-03-01T14:08:30;24.90;38.10
8188;DHT22;4135;49.184;9.722;2023-03-01T14:19:58;24.70;38.10
8188;DHT22;4135;49.184;9.722;2023-03-01T14:22:31;24.70;38.10
8188;DHT22;4135;49.184;9.722;2023-03-01T14:25:05;24.60;38.00
8188;DHT22;4135;49.184;9.722;2023-03-01T14:27:38;24.60;38.00
8188;DHT22;4135;49.184;9.722;2023-03-01T14:30:22;24.60;37.90
8188;DHT22;4135;49.184;9.722;2023-03-01T14:32:58;24.50;37.90
8188;DHT22;4135;49.184;9.722;2023-03-01T14:35:34;24.50;37.90
8188;DHT22;4135;49.184;9.722;2023-03-01T14:38:04;24.40;37.70
8188;DHT22;4135;49.184;9.722;2023-03-01T14:40:35;24.40;37.80
8188;DHT22;4135;49.184;9.722;2023-03-01T14:43:13;24.40;37.70
8188;DHT22;4135;49.184;9.722;2023-03-01T14:45:48;24.40;37.60
8188;DHT22;4135;49.184;9.722;2023-03-01T14:48:19;24.30;37.50
8188;DHT22;4135;49.184;9.722;2023-03-01T14:50:49;24.30;37.50
8188;DHT22;4135;49.184;9.722;2023-03-01T14:53:29;24.30;37.40
8188;DHT22;4135;49.184;9.722;2023-03-01T14:56:01;24.30;37.40
8188;DHT22;4135;49.184;9.722;2023-03-01T14:58:34;24.30;37.40
8188;DHT22;4135;49.184;9.722;2023-03-01T15:01:04;24.20;37.20
8188;DHT22;4135;49.184;9.722;2023-03-01T15:03:36;24.20;37.30
8188;DHT22;4135;49.184;9.722;2023-03-01T15:06:07;24.20;37.20
8188;DHT22;4135;49.184;9.722;2023-03-01T15:08:42;24.10;36.90
8188;DHT22;4135;49.184;9.722;2023-03-01T15:13:43;24.10;36.90
8188;DHT22;4135;49.184;9.722;2023-03-01T15:16:18;24.00;36.80
8188;DHT22;4135;49.184;9.722;2023-03-01T15:18:57;24.00;36.80
8188;DHT22;4135;49.184;9.722;2023-03-01T15:21:36;24.00;36.80
8188;DHT22;4135;49.184;9.722;2023-03-01T15:26:52;23.90;36.80
8188;DHT22;4135;49.184;9.722;2023-03-01T15:29:28;23.90;36.80
8188;DHT22;4135;49.184;9.722;2023-03-01T15:32:05;23.90;36.80
8188;DHT22;4135;49.184;9.722;2023-03-01T15:34:37;23.90;36.90
8188;DHT22;4135;49.184;9.722;2023-03-01T15:37:46;23.90;36.90
8188;DHT22;4135;49.184;9.722;2023-03-01T15:40:26;23.90;36.90
8188;DHT22;4135;49.184;9.722;2023-03-01T15:43:13;23.90;37.00
8188;DHT22;4135;49.184;9.722;2023-03-01T15:45:56;23.80;37.50
8188;DHT22;4135;49.184;9.722;2023-03-01T15:48:27;23.80;37.00
8188;DHT22;4135;49.184;9.722;2023-03-01T15:50:58;23.80;37.10
8188;DHT22;4135;49.184;9.722;2023-03-01T15:53:28;23.80;37.10
8188;DHT22;4135;49.184;9.722;2023-03-01T15:55:58;23.80;37.10
8188;DHT22;4135;49.184;9.722;2023-03-01T15:58:27;23.70;37.10
8188;DHT22;4135;49.184;9.722;2023-03-01T16:00:57;23.70;37.10
8188;DHT22;4135;49.184;9.722;2023-03-01T16:03:28;23.70;37.20
8188;DHT22;4135;49.184;9.722;2023-03-01T16:05:57;23.70;37.20
8188;DHT22;4135;49.184;9.722;2023-03-01T16:08:27;23.70;37.20
8188;DHT22;4135;49.184;9.722;2023-03-01T16:10:56;23.70;37.20
8188;DHT22;4135;49.184;9.722;2023-03-01T16:13:26;23.50;36.70
8188;DHT22;4135;49.184;9.722;2023-03-01T16:15:57;23.50;36.50
8188;DHT22;4135;49.184;9.722;2023-03-01T16:18:27;23.50;36.60
8188;DHT22;4135;49.184;9.722;2023-03-01T16:20:57;23.50;36.80
8188;DHT22;4135;49.184;9.722;2023-03-01T16:23:26;23.50;36.80
8188;DHT22;4135;49.184;9.722;2023-03-01T16:25:59;23.50;37.00
8188;DHT22;4135;49.184;9.722;2023-03-01T16:28:29;23.50;37.00
8188;DHT22;4135;49.184;9.722;2023-03-01T16:30:58;23.50;37.10
8188;DHT22;4135;49.184;9.722;2023-03-01T16:33:30;23.50;37.20
8188;DHT22;4135;49.184;9.722;2023-03-01T16:36:05;23.40;36.90
8188;DHT22;4135;49.184;9.722;2023-03-01T16:38:35;23.40;36.90
8188;DHT22;4135;49.184;9.722;2023-03-01T16:41:05;23.30;36.70
8188;DHT22;4135;49.184;9.722;2023-03-01T16:43:34;23.30;36.80
8188;DHT22;4135;49.184;9.722;2023-03-01T16:46:12;23.30;37.00
8188;DHT22;4135;49.184;9.722;2023-03-01T16:48:42;23.30;37.10
8188;DHT22;4135;49.184;9.722;2023-03-01T16:51:12;23.20;37.00
8188;DHT22;4135;49.184;9.722;2023-03-01T16:53:42;23.20;37.10
8188;DHT22;4135;49.184;9.722;2023-03-01T16:56:13;23.20;37.00
8188;DHT22;4135;49.184;9.722;2023-03-01T16:58:43;23.20;37.00
8188;DHT22;4135;49.184;9.722;2023-03-01T17:01:15;23.10;36.90
8188;DHT22;4135;49.184;9.722;2023-03-01T17:03:47;23.10;36.40
8188;DHT22;4135;49.184;9.722;2023-03-01T17:06:20;23.10;36.40
8188;DHT22;4135;49.184;9.722;2023-03-01T17:08:51;23.00;36.50
8188;DHT22;4135;49.184;9.722;2023-03-01T17:11:20;23.10;36.70
8188;DHT22;4135;49.184;9.722;2023-03-01T17:13:50;23.00;36.70
8188;DHT22;4135;49.184;9.722;2023-03-01T17:16:20;23.00;36.70
8188;DHT22;4135;49.184;9.722;2023-03-01T17:18:50;23.00;36.80
8188;DHT22;4135;49.184;9.722;2023-03-01T17:21:20;23.00;36.80
8188;DHT22;4135;49.184;9.722;2023-03-01T17:23:49;23.00;37.00
8188;DHT22;4135;49.184;9.722;2023-03-01T17:26:20;23.00;37.00
8188;DHT22;4135;49.184;9.722;2023-03-01T17:28:49;23.00;37.00
8188;DHT22;4135;49.184;9.722;2023-03-01T17:31:21;23.00;37.10
8188;DHT22;4135;49.184;9.722;2023-03-01T17:33:50;23.00;37.20
8188;DHT22;4135;49.184;9.722;2023-03-01T17:36:20;23.10;37.30
8188;DHT22;4135;49.184;9.722;2023-03-01T17:38:50;23.10;37.20
8188;DHT22;4135;49.184;9.722;2023-03-01T17:41:20;23.10;37.00
8188;DHT22;4135;49.184;9.722;2023-03-01T17:43:51;23.20;37.20
8188;DHT22;4135;49.184;9.722;2023-03-01T17:46:21;23.20;37.20
8188;DHT22;4135;49.184;9.722;2023-03-01T17:48:51;23.30;37.20
8188;DHT22;4135;49.184;9.722;2023-03-01T17:51:20;23.40;37.40
8188;DHT22;4135;49.184;9.722;2023-03-01T17:53:50;23.50;37.50
8188;DHT22;4135;49.184;9.722;2023-03-01T17:56:19;23.50;37.50
8188;DHT22;4135;49.184;9.722;2023-03-01T17:58:49;23.60;37.50
8188;DHT22;4135;49.184;9.722;2023-03-01T18:01:20;23.50;37.50
8188;DHT22;4135;49.184;9.722;2023-03-01T18:03:50;23.60;37.60
8188;DHT22;4135;49.184;9.722;2023-03-01T18:06:23;23.60;37.70
8188;DHT22;4135;49.184;9.722;2023-03-01T18:08:53;23.70;37.90
8188;DHT22;4135;49.184;9.722;2023-03-01T18:11:24;23.70;37.90
8188;DHT22;4135;49.184;9.722;2023-03-01T18:13:54;23.70;38.00
8188;DHT22;4135;49.184;9.722;2023-03-01T18:16:24;23.70;38.10
8188;DHT22;4135;49.184;9.722;2023-03-01T18:18:54;23.70;38.10
8188;DHT22;4135;49.184;9.722;2023-03-01T18:21:24;23.80;38.20
8188;DHT22;4135;49.184;9.722;2023-03-01T18:23:54;23.80;38.20